메인 페이지
METAR-TAF:

METAR-TAF

공항 :

Houma-Terrebonne Airport

Houma, 루이지애나, 미국

위도: 29-34N, 경도: 090-40W, 고도: 3m

현재 날씨관측

예보는 23분 전, 00:47시(UTC)에 발표되었습니다.
무풍
온도 10°C
습도 43%
기압 1019 hPa
시정: 11.3km
맑음

METAR: KHUM 170047Z 00000KT 7SM CLR 10/M02 A3009

시각: 19:10 (01:10 UTC)

예보

예보는 1 시간 50분 전, 23:20시(UTC)에 발표되었습니다.
예보 대상 시간: 17일 00시부터 17일 24시까지 (UTC)
여러 방향의 바람 3kt
시정: 10km
고도 25000ft 상공 구름 조금
일시적
17일 11시부터 17일 13시까지 (UTC)
시정: 8.0km
박무
17일 1900시부터 (UTC)
북서5kt
시정: 10km
맑음
17일 2300시부터 (UTC)
여러 방향의 바람 3kt
시정: 10km
고도 25000ft 상공 구름 조금

TAF: KHUM 162320Z 1700/1724 VRB03KT P6SM FEW250 TEMPO 1711/1713 5SM BR FM171900 32005KT P6SM SKC FM172300 VRB03KT P6SM FEW250

4,000개 이상의 공항 관측 자료 및 예보 (METAR 및 TAF 보고).

지도상에서 검색 가능한 기상관측소가 노란 점과 빨간 점으로 표시되어 있습니다.

기상관측소 명을 보려면 표시 위로 마우스를 이동하세요.

날씨 관측과 예보를 보려면 클릭하세요.

지도 변경 : 확대하려면 엑스 표시가 있는 녹색 버튼, 축소하려면 빼기 표시가 있는 녹색 버튼, 다음 페이지의 지도를 보려면 녹색 화살표를 클릭하세요.


METAR-TAF: